Tuesday, April 24, 2018, 4:28 AM EDT
Back to Local

KISP, Islip Long Island Mac Art

Location: Ronkonkoma, NY, United States Lat: 40.8
Local Time: 4:28 AM EDT ( 8:28 GMT) Lon: -73.1
Time Zone: US/Eastern Elev: 98 ft

Show me the last for .
Show Decoded

2018-04-24 03:56 METAR KISP 240756Z AUTO 00000KT 9SM CLR 03/03 A3041 RMK AO2 SLP299 T00330033 =
2018-04-24 02:56 METAR KISP 240656Z AUTO 04003KT 10SM CLR 04/03 A3041 RMK AO2 SLP299 T00390028 =
2018-04-24 01:56 METAR KISP 240556Z AUTO 13003KT 10SM CLR 05/04 A3042 RMK AO2 SLP302 T00500039
                 10089 20044 58009 =
2018-04-24 00:56 METAR KISP 240456Z AUTO 10004KT 10SM CLR 05/03 A3043 RMK AO2 SLP304 T00500033
                 401560017 =
2018-04-23 23:56 METAR KISP 240356Z 14003KT 10SM BKN250 06/03 A3045 RMK AO2 SLP310 LAST T00610033
                 =
2018-04-23 22:56 METAR KISP 240256Z 17004KT 10SM BKN250 08/04 A3045 RMK AO2 SLP311 T00780044
                 50001 =
2018-04-23 21:56 METAR KISP 240156Z 16004KT 10SM SCT250 08/04 A3045 RMK AO2 SLP310 T00780044 =
2018-04-23 20:56 METAR KISP 240056Z 16004KT 10SM FEW250 08/04 A3045 RMK AO2 SLP312 T00830044 =
2018-04-23 19:56 METAR KISP 232356Z 16007KT 10SM FEW250 09/03 A3044 RMK AO2 SLP310 T00890033
                 10156 20089 55003 =
2018-04-23 18:56 METAR KISP 232256Z 18007KT 10SM FEW250 11/02 A3044 RMK AO2 SLP308 T01060017 =
2018-04-23 17:56 METAR KISP 232156Z 16009KT 10SM FEW250 12/M01 A3045 RMK AO2 SLP312 T01171011 =
2018-04-23 16:56 METAR KISP 232056Z 15009KT 10SM FEW250 13/M01 A3045 RMK AO2 SLP313 T01331006
                 56006 =
2018-04-23 15:56 METAR KISP 231956Z 15010KT 10SM FEW250 13/00 A3046 RMK AO2 SLP315 T01330000 =
2018-04-23 14:56 METAR KISP 231856Z 13010KT 10SM FEW250 14/M06 A3046 RMK AO2 SLP316 T01441056 =
2018-04-23 13:56 METAR KISP 231756Z 14009KT 10SM FEW250 15/M04 A3047 RMK AO2 SLP319 T01501044
                 10156 20094 58007 =
2018-04-23 12:56 METAR KISP 231656Z 10010KT 10SM FEW250 14/M04 A3048 RMK AO2 SLP321 T01441039 =
2018-04-23 11:56 METAR KISP 231556Z COR 14011KT 10SM FEW250 14/M03 A3050 RMK AO2 SLP327 T01391033
                 =
2018-04-23 10:56 METAR KISP 231456Z 13014G21KT 10SM FEW250 13/M02 A3049 RMK AO2 SLP326 T01281017
                 53007 =
2018-04-23 09:56 METAR KISP 231356Z 08006KT 10SM FEW250 14/M04 A3047 RMK AO2 SLP318 T01441044 =
2018-04-23 08:56 METAR KISP 231256Z 07012KT 10SM FEW250 13/M04 A3046 RMK AO2 SLP316 T01281044 =
2018-04-23 07:56 METAR KISP 231156Z 02007KT 10SM CLR 09/01 A3047 RMK AO2 SLP319 T00940011 10094
                 20017 51016 =
2018-04-23 06:56 METAR KISP 231056Z 00000KT 10SM CLR 03/01 A3046 RMK AO2 SLP314 T00330011 =
2018-04-23 05:56 METAR KISP 230956Z 02004KT 10SM CLR 02/M01 A3044 RMK AO2 SLP308 T00221006 =
2018-04-23 04:56 METAR KISP 230856Z AUTO 36004KT 10SM CLR 03/M01 A3042 RMK AO2 SLP303 T00281006
                 53010 =

Support USWX by starting your Amazon purchase here.